createdAt,value
2019-01-18T00:01:54.671Z,67.43
2019-01-18T00:05:00.267Z,63.90
2019-01-18T00:08:06.355Z,60.80
2019-01-18T00:11:12.142Z,62.40
2019-01-18T00:14:17.735Z,62.83
2019-01-18T00:17:23.411Z,52.87
2019-01-18T00:20:29.053Z,55.57
2019-01-18T00:23:34.709Z,57.93
2019-01-18T00:26:40.395Z,54.00
2019-01-18T00:29:46.139Z,54.80
2019-01-18T00:32:51.777Z,55.67
2019-01-18T00:35:57.365Z,55.87
2019-01-18T00:39:04.831Z,55.60
2019-01-18T00:42:11.457Z,59.40
2019-01-18T00:45:17.353Z,60.47
2019-01-18T00:48:22.967Z,62.40
2019-01-18T00:51:28.720Z,61.87
2019-01-18T00:54:34.338Z,65.40
2019-01-18T00:57:39.978Z,66.50
2019-01-18T01:00:45.553Z,56.30
2019-01-18T01:03:51.180Z,58.67
2019-01-18T01:06:56.766Z,54.53
2019-01-18T01:10:02.357Z,51.63
2019-01-18T01:13:08.087Z,49.30
2019-01-18T01:16:13.818Z,57.13
2019-01-18T01:19:19.438Z,57.43
2019-01-18T01:22:25.053Z,67.30
2019-01-18T01:25:30.804Z,58.97
2019-01-18T01:28:36.489Z,57.33
2019-01-18T01:31:42.118Z,61.47
2019-01-18T01:34:47.736Z,59.70
2019-01-18T01:37:53.482Z,54.53
2019-01-18T01:40:59.102Z,53.90
2019-01-18T01:44:05.094Z,55.83
2019-01-18T01:47:10.738Z,61.63
2019-01-18T01:50:20.105Z,60.37
2019-01-18T01:53:25.729Z,58.83
2019-01-18T01:56:31.312Z,59.13
2019-01-18T01:59:36.887Z,64.17
2019-01-18T02:02:42.611Z,58.93
2019-01-18T02:05:48.195Z,64.83
2019-01-18T02:08:53.827Z,53.23
2019-01-18T02:11:59.471Z,61.23
2019-01-18T02:15:05.945Z,53.73
2019-01-18T02:18:11.602Z,59.57
2019-01-18T02:21:17.322Z,56.87
2019-01-18T02:24:22.996Z,53.13
2019-01-18T02:27:28.625Z,58.20
2019-01-18T02:30:34.279Z,54.30
2019-01-18T02:33:40.016Z,48.70
2019-01-18T02:36:45.772Z,57.33
2019-01-18T02:39:51.421Z,51.73
2019-01-18T02:42:57.028Z,55.37
2019-01-18T02:46:02.643Z,53.37
2019-01-18T02:49:08.261Z,53.27
2019-01-18T02:52:13.874Z,48.70
2019-01-18T02:55:19.551Z,47.43
2019-01-18T02:58:25.166Z,44.93
2019-01-18T03:01:30.756Z,42.13
2019-01-18T03:04:36.519Z,38.40
2019-01-18T03:07:42.249Z,41.90
2019-01-18T03:10:47.938Z,44.37
2019-01-18T03:13:53.603Z,42.67
2019-01-18T03:16:59.281Z,44.73
2019-01-18T03:20:05.975Z,38.20
2019-01-18T03:23:11.630Z,39.57
2019-01-18T03:26:17.262Z,46.17
2019-01-18T03:29:22.864Z,40.77
2019-01-18T03:32:28.687Z,42.47
2019-01-18T03:35:34.428Z,43.60
2019-01-18T03:38:40.085Z,40.57
2019-01-18T03:41:45.961Z,36.30
2019-01-18T03:44:51.697Z,39.17
2019-01-18T03:47:57.425Z,33.50
2019-01-18T03:51:03.178Z,32.23
2019-01-18T03:54:08.731Z,35.67
2019-01-18T03:57:14.322Z,38.47
2019-01-18T04:00:26.276Z,34.57
2019-01-18T04:03:29.459Z,30.70
2019-01-18T04:06:35.077Z,31.87
2019-01-18T04:09:40.725Z,28.87
2019-01-18T04:12:46.838Z,29.40
2019-01-18T04:15:52.445Z,33.30
2019-01-18T04:18:58.107Z,32.47
2019-01-18T04:22:03.775Z,31.47
2019-01-18T04:25:12.360Z,30.70
2019-01-18T04:28:17.986Z,34.30
2019-01-18T04:31:23.660Z,35.43
2019-01-18T04:34:29.314Z,36.87
2019-01-18T04:37:34.949Z,36.77
2019-01-18T04:40:40.586Z,47.07
2019-01-18T04:43:46.219Z,34.33
2019-01-18T04:46:51.963Z,41.83
2019-01-18T04:49:57.647Z,41.03
2019-01-18T04:53:03.272Z,41.83
2019-01-18T04:56:09.030Z,40.10
2019-01-18T04:59:14.672Z,33.47
2019-01-18T05:02:20.437Z,34.40
2019-01-18T05:05:26.208Z,36.10
2019-01-18T05:08:31.814Z,37.03
2019-01-18T05:11:37.529Z,35.23
2019-01-18T05:14:43.130Z,36.07
2019-01-18T05:17:48.779Z,41.60
2019-01-18T05:20:54.486Z,37.63
2019-01-18T05:24:00.085Z,37.73
2019-01-18T05:27:05.706Z,39.13
2019-01-18T05:30:17.295Z,38.23
2019-01-18T05:33:23.046Z,36.30
2019-01-18T05:36:28.710Z,41.10
2019-01-18T05:39:34.325Z,39.67
2019-01-18T05:42:40.004Z,41.47
2019-01-18T05:45:45.665Z,55.23
2019-01-18T05:48:51.281Z,42.50
2019-01-18T05:51:57.046Z,50.13
2019-01-18T05:55:02.722Z,77.97
2019-01-18T05:58:08.435Z,67.67
2019-01-18T06:01:14.928Z,76.77
2019-01-18T06:04:20.581Z,70.83
2019-01-18T06:07:26.224Z,66.17
2019-01-18T06:10:31.847Z,50.80
2019-01-18T06:13:37.480Z,56.53
2019-01-18T06:16:43.178Z,59.33
2019-01-18T06:19:50.078Z,48.67
2019-01-18T06:22:55.683Z,46.77
2019-01-18T06:26:01.315Z,52.67
2019-01-18T06:29:06.927Z,55.30
2019-01-18T06:32:12.668Z,58.87
2019-01-18T06:35:18.701Z,59.80
2019-01-18T06:38:25.430Z,63.43
2019-01-18T06:41:43.981Z,58.47
2019-01-18T06:44:49.576Z,49.50
2019-01-18T06:47:55.314Z,48.13
2019-01-18T06:51:00.937Z,46.50
2019-01-18T06:54:06.708Z,44.97
2019-01-18T06:57:12.379Z,39.90
2019-01-18T07:00:21.249Z,36.60
2019-01-18T07:03:26.949Z,36.47
2019-01-18T07:06:32.582Z,36.27
2019-01-18T07:09:38.274Z,34.00
2019-01-18T07:12:43.845Z,37.13
2019-01-18T07:15:49.450Z,32.83
2019-01-18T07:18:55.115Z,35.40
2019-01-18T07:22:00.733Z,31.03
2019-01-18T07:25:08.533Z,38.43
2019-01-18T07:28:14.213Z,31.57
2019-01-18T07:31:19.840Z,32.77
2019-01-18T07:34:25.492Z,34.20
2019-01-18T07:37:31.070Z,28.17
2019-01-18T07:40:36.801Z,36.70
2019-01-18T07:43:42.424Z,34.07
2019-01-18T07:46:48.047Z,28.70
2019-01-18T07:49:53.703Z,34.13
2019-01-18T07:52:59.453Z,30.30
2019-01-18T07:56:05.239Z,34.23
2019-01-18T07:59:10.874Z,38.33
2019-01-18T08:02:16.545Z,52.37
2019-01-18T08:05:23.790Z,42.50
2019-01-18T08:08:29.929Z,44.47
2019-01-18T08:11:35.560Z,33.43
2019-01-18T08:14:41.339Z,26.60
2019-01-18T08:17:47.209Z,25.37
2019-01-18T08:20:52.869Z,25.43
2019-01-18T08:23:58.847Z,29.53
2019-01-18T08:27:04.592Z,40.07
2019-01-18T08:30:13.919Z,46.70
2019-01-18T08:33:19.563Z,49.97
2019-01-18T08:36:26.208Z,48.73
2019-01-18T08:39:31.823Z,62.07
2019-01-18T08:42:37.658Z,79.77
2019-01-18T08:45:46.242Z,41.13
2019-01-18T08:48:51.884Z,39.10
2019-01-18T08:51:57.505Z,45.27
2019-01-18T08:55:03.384Z,35.53
2019-01-18T08:58:09.033Z,39.17
2019-01-18T09:01:14.612Z,35.80
2019-01-18T09:04:20.215Z,31.43
2019-01-18T09:07:25.841Z,31.83
2019-01-18T09:10:32.112Z,39.73
2019-01-18T09:13:37.705Z,32.00
2019-01-18T09:16:43.336Z,28.07
2019-01-18T09:19:48.932Z,31.47
2019-01-18T09:22:54.756Z,30.63
2019-01-18T09:26:00.377Z,37.77
2019-01-18T09:29:06.013Z,30.73
2019-01-18T09:32:11.802Z,29.83
2019-01-18T09:35:18.719Z,29.07
2019-01-18T09:38:25.396Z,40.10
2019-01-18T09:41:31.065Z,28.80
2019-01-18T09:44:36.733Z,31.90
2019-01-18T09:47:42.462Z,29.83
2019-01-18T09:50:48.082Z,26.33
2019-01-18T09:53:53.691Z,22.80
2019-01-18T09:56:59.329Z,27.97
2019-01-18T10:00:08.278Z,37.67
2019-01-18T10:03:14.007Z,28.77
2019-01-18T10:06:19.789Z,33.47
2019-01-18T10:09:25.418Z,29.70
2019-01-18T10:12:31.053Z,32.83
2019-01-18T10:15:39.472Z,37.90
2019-01-18T10:18:45.165Z,34.03
2019-01-18T10:21:50.763Z,40.50
2019-01-18T10:24:56.376Z,38.83
2019-01-18T10:28:02.027Z,35.10
2019-01-18T10:31:08.759Z,39.13
2019-01-18T10:34:14.397Z,36.07
2019-01-18T10:37:20.118Z,27.00
2019-01-18T10:40:25.897Z,30.33
2019-01-18T10:43:31.677Z,24.43
2019-01-18T10:46:37.650Z,22.80
2019-01-18T10:49:43.429Z,22.67
2019-01-18T10:52:50.573Z,22.97
2019-01-18T10:55:56.258Z,20.80
2019-01-18T10:59:02.290Z,23.03
2019-01-18T11:02:08.414Z,22.63
2019-01-18T11:05:14.689Z,23.07
2019-01-18T11:08:20.305Z,22.73
2019-01-18T11:11:25.933Z,18.90
2019-01-18T11:14:31.665Z,17.40
2019-01-18T11:17:37.490Z,32.10
2019-01-18T11:20:53.417Z,17.37
2019-01-18T11:23:59.163Z,23.83
2019-01-18T11:27:05.023Z,19.73
2019-01-18T11:30:14.007Z,21.80
2019-01-18T11:33:19.651Z,47.53
2019-01-18T11:36:25.342Z,31.63
2019-01-18T11:39:30.962Z,32.03
2019-01-18T11:42:36.757Z,30.07
2019-01-18T11:45:42.374Z,33.93
2019-01-18T11:48:50.394Z,33.00
2019-01-18T11:51:55.334Z,31.13
2019-01-18T11:55:01.013Z,30.40
2019-01-18T11:58:06.753Z,31.30
2019-01-18T12:01:12.547Z,36.77
2019-01-18T12:04:18.203Z,33.67
2019-01-18T12:07:23.860Z,70.83
2019-01-18T12:10:31.525Z,42.83
2019-01-18T12:13:37.212Z,34.40
2019-01-18T12:16:42.928Z,36.83
2019-01-18T12:19:48.536Z,49.83
2019-01-18T12:22:54.235Z,37.47
2019-01-18T12:25:59.977Z,40.00
2019-01-18T12:29:05.925Z,41.80
2019-01-18T12:32:11.532Z,30.03
2019-01-18T12:35:17.285Z,28.83
2019-01-18T12:38:22.880Z,32.27
2019-01-18T12:41:28.492Z,48.27
2019-01-18T12:44:34.120Z,52.13
2019-01-18T12:47:39.797Z,37.90
2019-01-18T12:50:45.569Z,32.83
2019-01-18T12:53:51.245Z,38.53
2019-01-18T12:56:56.927Z,58.90
2019-01-18T13:00:02.686Z,40.67
2019-01-18T13:03:09.468Z,31.90
2019-01-18T13:06:15.221Z,42.87
2019-01-18T13:09:20.833Z,75.03
2019-01-18T13:12:26.546Z,38.47
2019-01-18T13:15:45.236Z,38.23
2019-01-18T13:18:53.685Z,43.60
2019-01-18T13:21:59.339Z,62.43
2019-01-18T13:25:06.726Z,55.37
2019-01-18T13:28:12.359Z,45.53
2019-01-18T13:31:18.067Z,77.53
2019-01-18T13:34:23.805Z,79.53
2019-01-18T13:37:29.494Z,36.70
2019-01-18T13:40:35.327Z,46.93
2019-01-18T13:43:41.082Z,65.17
2019-01-18T13:46:46.750Z,62.57
2019-01-18T13:49:52.434Z,58.47
2019-01-18T13:52:58.126Z,46.10
2019-01-18T13:56:03.885Z,50.07
2019-01-18T13:59:09.520Z,51.63
2019-01-18T14:02:15.303Z,63.80
2019-01-18T14:05:20.901Z,67.83
2019-01-18T14:08:26.555Z,52.47
2019-01-18T14:11:32.290Z,97.10
2019-01-18T14:14:38.116Z,70.53
2019-01-18T14:17:43.776Z,74.07
2019-01-18T14:20:49.498Z,69.97
2019-01-18T14:23:55.101Z,67.33
2019-01-18T14:27:00.759Z,143.33
2019-01-18T14:30:08.875Z,135.03
2019-01-18T14:33:14.493Z,99.47
2019-01-18T14:36:20.709Z,91.90
2019-01-18T14:39:26.292Z,84.53
2019-01-18T14:42:31.947Z,101.83
2019-01-18T14:45:39.967Z,99.07
2019-01-18T14:48:45.630Z,64.10
2019-01-18T14:51:51.329Z,70.27
2019-01-18T14:54:56.979Z,83.47
2019-01-18T14:58:02.989Z,78.77
2019-01-18T15:01:08.506Z,91.03
2019-01-18T15:04:14.237Z,97.57
2019-01-18T15:07:19.889Z,68.63
2019-01-18T15:10:26.054Z,82.27
2019-01-18T15:13:31.680Z,100.60
2019-01-18T15:16:37.297Z,95.73
2019-01-18T15:19:42.925Z,79.07
2019-01-18T15:22:48.753Z,83.73
2019-01-18T15:25:54.395Z,86.70
2019-01-18T15:29:00.050Z,79.17
2019-01-18T15:32:05.891Z,116.93
2019-01-18T15:35:13.853Z,120.43
2019-01-18T15:38:19.518Z,138.70
2019-01-18T15:41:25.119Z,138.67
2019-01-18T15:44:30.782Z,90.30
2019-01-18T15:47:36.512Z,84.50
2019-01-18T15:50:42.235Z,113.03
2019-01-18T15:53:47.872Z,184.67
2019-01-18T15:56:53.848Z,142.63
2019-01-18T15:59:59.470Z,146.00
2019-01-18T16:03:05.826Z,152.67
2019-01-18T16:06:11.586Z,165.67
2019-01-18T16:09:17.285Z,255.27
2019-01-18T16:12:22.965Z,165.33
2019-01-18T16:15:49.402Z,104.10
2019-01-18T16:18:56.303Z,126.33
2019-01-18T16:22:01.963Z,200.07
2019-01-18T16:25:10.969Z,247.70
2019-01-18T16:28:16.597Z,138.37
2019-01-18T16:31:22.219Z,134.87
2019-01-18T16:34:27.876Z,123.53
2019-01-18T16:37:33.610Z,107.20
2019-01-18T16:40:39.241Z,107.50
2019-01-18T16:43:46.619Z,107.80
2019-01-18T16:46:52.252Z,129.73
2019-01-18T16:49:57.896Z,157.57
2019-01-18T16:53:03.563Z,150.50
2019-01-18T16:56:09.308Z,178.50
2019-01-18T16:59:14.935Z,224.00
2019-01-18T17:02:20.669Z,244.77
2019-01-18T17:05:26.550Z,259.83
2019-01-18T17:08:32.246Z,231.53
2019-01-18T17:11:37.897Z,246.20
2019-01-18T17:14:43.573Z,222.10
2019-01-18T17:17:49.271Z,235.63
2019-01-18T17:20:54.997Z,245.20
2019-01-18T17:24:00.660Z,244.97
2019-01-18T17:27:06.421Z,270.40
2019-01-18T17:30:15.398Z,254.30
2019-01-18T17:33:21.268Z,259.20
2019-01-18T17:36:59.843Z,271.93
2019-01-18T17:40:19.919Z,255.50
2019-01-18T17:44:12.446Z,248.97
2019-01-18T17:47:53.266Z,228.60
2019-01-18T17:51:35.756Z,221.47
2019-01-18T17:54:49.073Z,242.20
2019-01-18T17:58:35.600Z,330.03
2019-01-18T18:02:09.464Z,296.53
2019-01-18T18:05:42.507Z,270.43
2019-01-18T18:09:12.457Z,275.60
2019-01-18T18:12:48.524Z,323.00
2019-01-18T18:16:29.142Z,331.83
2019-01-18T18:20:24.407Z,289.23
2019-01-18T18:24:19.739Z,254.60
2019-01-18T18:28:15.742Z,236.77
2019-01-18T18:32:18.181Z,221.27
2019-01-18T18:35:58.618Z,189.43
2019-01-18T18:39:51.012Z,213.87
2019-01-18T18:43:15.039Z,221.83
2019-01-18T18:47:03.905Z,218.43
2019-01-18T18:50:55.440Z,202.83
2019-01-18T18:54:36.825Z,220.13
2019-01-18T18:58:20.496Z,1277.47
2019-01-18T19:02:15.729Z,548.20
2019-01-18T19:05:57.834Z,363.97
2019-01-18T19:09:53.051Z,202.20
2019-01-18T19:13:31.671Z,195.47
2019-01-18T19:17:20.202Z,195.70
2019-01-18T19:21:12.619Z,197.47
2019-01-18T19:25:10.445Z,169.17
2019-01-18T19:28:51.583Z,143.90
2019-01-18T19:32:55.309Z,147.23
2019-01-18T19:36:53.790Z,169.47
2019-01-18T19:40:32.948Z,186.70
2019-01-18T19:44:24.239Z,211.13
2019-01-18T19:47:58.919Z,181.50
2019-01-18T19:51:14.308Z,176.20
2019-01-18T19:54:42.105Z,195.00
2019-01-18T19:58:16.943Z,259.47
2019-01-18T20:01:35.334Z,201.87
2019-01-18T20:05:11.522Z,177.13
2019-01-18T20:08:42.295Z,159.23
2019-01-18T20:12:37.780Z,164.07
2019-01-18T20:16:36.155Z,151.97
2019-01-18T20:20:20.041Z,160.90
2019-01-18T20:24:02.249Z,159.50
2019-01-18T20:27:46.713Z,170.80
2019-01-18T20:31:34.156Z,144.60
2019-01-18T20:35:14.419Z,126.70
2019-01-18T20:39:12.123Z,149.70
2019-01-18T20:42:56.774Z,126.90
2019-01-18T20:46:54.550Z,93.73
2019-01-18T20:50:32.368Z,90.53
2019-01-18T20:53:54.636Z,101.17
2019-01-18T20:57:22.396Z,87.50
2019-01-18T21:01:18.106Z,81.97
2019-01-18T21:05:06.064Z,92.37
2019-01-18T21:08:52.861Z,96.77
2019-01-18T21:12:12.616Z,93.30
2019-01-18T21:15:31.644Z,111.97
2019-01-18T21:19:27.234Z,93.63
2019-01-18T21:23:34.545Z,116.57
2019-01-18T21:27:36.222Z,114.33
2019-01-18T21:31:23.674Z,124.93
2019-01-18T21:35:15.746Z,129.13
2019-01-18T21:38:48.054Z,129.27
2019-01-18T21:42:40.372Z,122.17
2019-01-18T21:46:19.327Z,137.63
2019-01-18T21:49:41.270Z,120.03
2019-01-18T21:53:24.126Z,113.10
2019-01-18T21:57:16.328Z,112.80
2019-01-18T22:00:58.267Z,133.70
2019-01-18T22:04:40.442Z,170.73
2019-01-18T22:08:13.483Z,106.93
2019-01-18T22:12:11.858Z,108.67
2019-01-18T22:15:56.378Z,178.97
2019-01-18T22:19:39.423Z,106.07
2019-01-18T22:23:15.197Z,112.60
2019-01-18T22:27:00.416Z,111.03
2019-01-18T22:30:43.566Z,110.07
2019-01-18T22:34:13.076Z,116.50
2019-01-18T22:37:49.798Z,117.53
2019-01-18T22:41:54.199Z,106.20
2019-01-18T22:45:30.504Z,105.97
2019-01-18T22:49:13.313Z,115.33
2019-01-18T22:53:13.169Z,106.53
2019-01-18T22:57:08.761Z,100.73
2019-01-18T23:01:13.019Z,107.17
2019-01-18T23:04:46.679Z,98.70
2019-01-18T23:08:31.637Z,112.33
2019-01-18T23:11:56.572Z,102.13
2019-01-18T23:15:54.457Z,94.87
2019-01-18T23:19:36.631Z,105.30
2019-01-18T23:23:06.473Z,101.47
2019-01-18T23:27:06.061Z,98.57
2019-01-18T23:30:43.954Z,96.23
2019-01-18T23:34:10.945Z,96.67
2019-01-18T23:37:51.706Z,95.70
2019-01-18T23:41:21.395Z,95.80
2019-01-18T23:45:12.608Z,103.23
2019-01-18T23:48:52.699Z,105.53
2019-01-18T23:52:21.292Z,103.70
2019-01-18T23:55:34.750Z,105.97
2019-01-18T23:59:10.586Z,114.63
